LGTG

Tanagra Airport

Tanagra, Greece
TAF LGTG 210200Z 2103/2112 35012KT 9999 FEW030 BECMG 2104/2106 SCT025 SCT070 TEMPO 2108/2112 35012G22KT BECMG 2110/2112 FEW025
Issued Valid From Valid To
Apr-21 @ 02:00 UTC
(2 hours ago)
Apr-21 @ 03:00 UTC
(an hour ago)
Apr-21 @ 12:00 UTC
(in 8 hours)
Expired Click to View Apr-21 @ 03:00 to Apr-21 @ 04:00
TAF LGTG 210200Z 2103/2112 35012KT 9999 FEW030
Wind Visibility Clouds
350° at 12 knots 10,000+ meters
  • Few at 3,000' AGL
Becoming Apr-21 @ 04:00 to Apr-21 @ 10:00
BECMG 2104/2106 SCT025 SCT070
Wind Visibility Clouds
350° at 12 knots 10,000+ meters
  • Scattered at 2,500' AGL
  • Scattered at 7,000' AGL
Temporary Apr-21 @ 08:00 to Apr-21 @ 12:00
TEMPO 2108/2112 35012G22KT
Wind
350° at 12 knots
 Gusting to 22 knots
Becoming Apr-21 @ 10:00 to Apr-21 @ 12:00
BECMG 2110/2112 FEW025
Wind Visibility Clouds
350° at 12 knots 10,000+ meters
  • Few at 2,500' AGL
TAF LGTG 210200Z 2103/2112 35012KT 9999 FEW030 BECMG 2104/2106 SCT025 SCT070 TEMPO 2108/2112 35012G22KT BECMG 2110/2112 FEW025
Issued Apr-21 @ 02:00 UTC
(2 hours ago)
Valid From Apr-21 @ 03:00 UTC
(an hour ago)
Valid To Apr-21 @ 12:00 UTC
(in 8 hours)
Apr-21 @ 03:00 - Apr-21 @ 04:00
Wind Visibility
350° at 12 knots 10,000+ meters
Clouds
  • Few at 3,000' AGL
Becoming Apr-21 @ 04:00 - Apr-21 @ 10:00
Wind Visibility
350° at 12 knots 10,000+ meters
Clouds
  • Scattered at 2,500' AGL
  • Scattered at 7,000' AGL
Temporary Apr-21 @ 08:00 - Apr-21 @ 12:00
Wind
350° at 12 knots
 Gusting to 22 knots
Becoming Apr-21 @ 10:00 - Apr-21 @ 12:00
Wind Visibility
350° at 12 knots 10,000+ meters
Clouds
  • Few at 2,500' AGL